createdAt,value
2016-04-06T00:00:06.066Z,997.66
2016-04-06T00:01:06.101Z,997.66
2016-04-06T00:02:06.119Z,997.7
2016-04-06T00:03:06.138Z,997.7
2016-04-06T00:04:06.171Z,997.69
2016-04-06T00:05:06.205Z,997.69
2016-04-06T00:06:06.207Z,997.71
2016-04-06T00:07:06.242Z,997.73
2016-04-06T00:08:06.260Z,997.72
2016-04-06T00:09:06.294Z,997.72
2016-04-06T00:10:06.312Z,997.82
2016-04-06T00:11:06.330Z,997.81
2016-04-06T00:12:06.364Z,997.78
2016-04-06T00:13:06.383Z,997.77
2016-04-06T00:14:06.400Z,997.71
2016-04-06T00:15:06.435Z,997.71
2016-04-06T00:16:06.453Z,997.72
2016-04-06T00:17:06.486Z,997.73
2016-04-06T00:18:06.505Z,997.73
2016-04-06T00:19:06.524Z,997.77
2016-04-06T00:20:06.542Z,997.76
2016-04-06T00:21:06.576Z,997.79
2016-04-06T00:22:06.594Z,997.79
2016-04-06T00:23:06.613Z,997.8
2016-04-06T00:24:06.647Z,997.76
2016-04-06T00:25:06.665Z,997.79
2016-04-06T00:26:06.699Z,997.75
2016-04-06T00:27:06.717Z,997.76
2016-04-06T00:28:06.735Z,997.74
2016-04-06T00:29:06.769Z,997.75
2016-04-06T00:30:06.788Z,997.73
2016-04-06T00:31:06.807Z,997.7
2016-04-06T00:32:06.841Z,997.68
2016-04-06T00:33:06.859Z,997.65
2016-04-06T00:34:06.908Z,997.71
2016-04-06T00:35:06.910Z,997.73
2016-04-06T00:36:06.929Z,997.76
2016-04-06T00:37:06.947Z,997.71
2016-04-06T00:38:06.981Z,997.67
2016-04-06T00:39:07.000Z,997.66
2016-04-06T00:40:07.018Z,997.72
2016-04-06T00:41:07.052Z,997.72
2016-04-06T00:42:07.070Z,997.74
2016-04-06T00:43:07.089Z,997.73
2016-04-06T00:44:07.122Z,997.67
2016-04-06T00:45:07.141Z,997.73
2016-04-06T00:46:07.159Z,997.73
2016-04-06T00:47:07.192Z,997.74
2016-04-06T00:48:07.212Z,997.71
2016-04-06T00:49:07.230Z,997.72
2016-04-06T00:50:07.248Z,997.75
2016-04-06T00:51:07.282Z,997.76
2016-04-06T00:52:07.300Z,997.8
2016-04-06T00:53:07.334Z,997.78
2016-04-06T00:54:07.352Z,997.77
2016-04-06T00:55:07.371Z,997.77
2016-04-06T00:56:07.404Z,997.75
2016-04-06T00:57:07.424Z,997.73
2016-04-06T00:58:07.441Z,997.76
2016-04-06T00:59:07.460Z,997.71
2016-04-06T01:00:07.494Z,997.72
2016-04-06T01:01:07.512Z,997.72
2016-04-06T01:02:07.546Z,997.75
2016-04-06T01:03:07.565Z,997.74
2016-04-06T01:04:07.582Z,997.71
2016-04-06T01:05:07.601Z,997.72
2016-04-06T01:06:07.634Z,997.67
2016-04-06T01:07:07.653Z,997.66
2016-04-06T01:08:07.671Z,997.64
2016-04-06T01:09:07.706Z,997.68
2016-04-06T01:10:07.724Z,997.68
2016-04-06T01:11:07.742Z,997.71
2016-04-06T01:12:07.776Z,997.72
2016-04-06T01:13:07.794Z,997.68
2016-04-06T01:14:07.812Z,997.66
2016-04-06T01:15:07.847Z,997.71
2016-04-06T01:16:07.881Z,997.69
2016-04-06T01:17:07.884Z,997.68
2016-04-06T01:18:07.901Z,997.63
2016-04-06T01:19:07.936Z,997.7
2016-04-06T01:20:07.953Z,997.68
2016-04-06T01:21:07.988Z,997.66
2016-04-06T01:22:08.006Z,997.67
2016-04-06T01:23:08.024Z,997.69
2016-04-06T01:24:08.042Z,997.65
2016-04-06T01:25:08.091Z,997.69
2016-04-06T01:26:08.095Z,997.68
2016-04-06T01:27:08.113Z,997.7
2016-04-06T01:28:08.132Z,997.65
2016-04-06T01:29:08.166Z,997.68
2016-04-06T01:30:08.183Z,997.71
2016-04-06T01:31:08.202Z,997.69
2016-04-06T01:32:08.235Z,997.72
2016-04-06T01:33:08.254Z,997.74
2016-04-06T01:34:08.287Z,997.76
2016-04-06T01:35:08.306Z,997.78
2016-04-06T01:36:08.324Z,997.78
2016-04-06T01:37:08.343Z,997.71
2016-04-06T01:38:08.377Z,997.77
2016-04-06T01:39:08.396Z,997.73
2016-04-06T01:40:08.414Z,997.74
2016-04-06T01:41:08.432Z,997.71
2016-04-06T01:42:08.465Z,997.68
2016-04-06T01:43:08.484Z,997.67
2016-04-06T01:44:08.503Z,997.68
2016-04-06T01:45:08.537Z,997.64
2016-04-06T01:46:08.556Z,997.61
2016-04-06T01:47:08.573Z,997.65
2016-04-06T01:48:08.607Z,997.65
2016-04-06T01:49:08.656Z,997.72
2016-04-06T01:50:08.644Z,997.67
2016-04-06T01:51:08.677Z,997.67
2016-04-06T01:52:08.696Z,997.65
2016-04-06T01:53:08.714Z,997.67
2016-04-06T01:54:08.747Z,997.67
2016-04-06T01:55:08.767Z,997.73
2016-04-06T01:56:08.785Z,997.76
2016-04-06T01:57:08.803Z,997.75
2016-04-06T01:58:08.838Z,997.77
2016-04-06T01:59:08.855Z,997.74
2016-04-06T02:00:08.889Z,997.78
2016-04-06T02:01:08.907Z,997.77
2016-04-06T02:02:08.926Z,997.74
2016-04-06T02:03:08.943Z,997.75
2016-04-06T02:04:08.962Z,997.79
2016-04-06T02:05:08.996Z,997.78
2016-04-06T02:06:09.015Z,997.76
2016-04-06T02:07:09.143Z,997.79
2016-04-06T02:08:09.153Z,997.81
2016-04-06T02:09:09.171Z,997.81
2016-04-06T02:10:09.206Z,997.86
2016-04-06T02:11:09.208Z,997.84
2016-04-06T02:12:09.211Z,997.85
2016-04-06T02:13:09.213Z,997.83
2016-04-06T02:14:09.232Z,997.85
2016-04-06T02:15:09.219Z,997.85
2016-04-06T02:16:09.254Z,997.79
2016-04-06T02:17:09.382Z,997.82
2016-04-06T02:18:09.384Z,997.83
2016-04-06T02:19:09.324Z,997.86
2016-04-06T02:20:09.342Z,997.82
2016-04-06T02:21:09.454Z,997.83
2016-04-06T02:22:09.457Z,997.83
2016-04-06T02:23:09.491Z,997.79
2016-04-06T02:24:09.494Z,997.78
2016-04-06T02:25:09.512Z,997.76
2016-04-06T02:26:09.515Z,997.82
2016-04-06T02:27:09.517Z,997.82
2016-04-06T02:28:09.520Z,997.87
2016-04-06T02:29:09.538Z,997.85
2016-04-06T02:30:09.572Z,997.85
2016-04-06T02:31:09.591Z,997.88
2016-04-06T02:32:09.609Z,997.89
2016-04-06T02:33:09.628Z,997.95
2016-04-06T02:34:09.678Z,997.96
2016-04-06T02:35:09.680Z,997.92
2016-04-06T02:36:09.698Z,997.96
2016-04-06T02:37:09.716Z,997.96
2016-04-06T02:38:09.750Z,997.97
2016-04-06T02:39:09.769Z,997.96
2016-04-06T02:40:09.786Z,997.98
2016-04-06T02:41:09.821Z,997.98
2016-04-06T02:42:09.839Z,997.91
2016-04-06T02:43:09.857Z,997.96
2016-04-06T02:44:09.876Z,997.97
2016-04-06T02:45:09.910Z,997.97
2016-04-06T02:46:09.928Z,997.93
2016-04-06T02:47:09.946Z,997.95
2016-04-06T02:48:09.980Z,997.95
2016-04-06T02:49:10.014Z,997.97
2016-04-06T02:50:10.017Z,997.98
2016-04-06T02:51:10.035Z,997.99
2016-04-06T02:52:10.179Z,998.02
2016-04-06T02:53:10.197Z,998.02
2016-04-06T02:54:10.137Z,998.01
2016-04-06T02:55:10.140Z,998.02
2016-04-06T02:56:10.267Z,998.01
2016-04-06T02:57:10.286Z,998.04
2016-04-06T02:58:10.289Z,998.03
2016-04-06T02:59:10.322Z,998.02
2016-04-06T03:00:10.325Z,998.04
2016-04-06T03:01:10.328Z,997.96
2016-04-06T03:02:10.346Z,997.95
2016-04-06T03:03:10.349Z,997.95
2016-04-06T03:04:10.383Z,997.97
2016-04-06T03:05:10.370Z,997.98
2016-04-06T03:06:10.482Z,997.95
2016-04-06T03:07:10.422Z,997.99
2016-04-06T03:08:10.441Z,997.95
2016-04-06T03:09:10.443Z,997.96
2016-04-06T03:10:10.477Z,998.05
2016-04-06T03:11:10.494Z,998.03
2016-04-06T03:12:10.529Z,998.04
2016-04-06T03:13:10.547Z,998.08
2016-04-06T03:14:10.582Z,998.08
2016-04-06T03:15:10.585Z,998.12
2016-04-06T03:16:10.696Z,998.1
2016-04-06T03:17:10.636Z,998.11
2016-04-06T03:18:10.654Z,998.08
2016-04-06T03:19:10.688Z,998.08
2016-04-06T03:20:10.691Z,998.15
2016-04-06T03:21:10.726Z,998.16
2016-04-06T03:22:10.744Z,998.14
2016-04-06T03:23:10.762Z,998.15
2016-04-06T03:24:10.796Z,998.14
2016-04-06T03:25:10.814Z,998.16
2016-04-06T03:26:10.832Z,998.15
2016-04-06T03:27:10.850Z,998.14
2016-04-06T03:28:10.884Z,998.12
2016-04-06T03:29:10.903Z,998.1
2016-04-06T03:30:10.920Z,998.1
2016-04-06T03:31:10.940Z,998.11
2016-04-06T03:32:10.973Z,998.1
2016-04-06T03:33:10.992Z,998.12
2016-04-06T03:34:11.011Z,998.1
2016-04-06T03:35:11.029Z,998.14
2016-04-06T03:36:11.062Z,998.1
2016-04-06T03:37:11.081Z,998.1
2016-04-06T03:38:11.099Z,998.1
2016-04-06T03:39:11.133Z,998.13
2016-04-06T03:40:11.151Z,998.11
2016-04-06T03:41:11.169Z,998.13
2016-04-06T03:42:11.188Z,998.1
2016-04-06T03:43:11.222Z,998.1
2016-04-06T03:44:11.241Z,998.11
2016-04-06T03:45:11.274Z,998.14
2016-04-06T03:46:11.293Z,998.16
2016-04-06T03:47:11.310Z,998.17
2016-04-06T03:48:11.329Z,998.19
2016-04-06T03:49:11.363Z,998.19
2016-04-06T03:50:11.366Z,998.19
2016-04-06T03:51:11.399Z,998.22
2016-04-06T03:52:11.418Z,998.26
2016-04-06T03:53:11.437Z,998.28
2016-04-06T03:54:11.470Z,998.27
2016-04-06T03:55:11.488Z,998.27
2016-04-06T03:56:11.507Z,998.26
2016-04-06T03:57:11.525Z,998.26
2016-04-06T03:58:11.559Z,998.27
2016-04-06T03:59:11.577Z,998.26
2016-04-06T04:00:11.612Z,998.25
2016-04-06T04:01:11.614Z,998.25
2016-04-06T04:02:11.648Z,998.25
2016-04-06T04:03:11.667Z,998.26
2016-04-06T04:04:11.700Z,998.25
2016-04-06T04:05:11.703Z,998.3
2016-04-06T04:06:11.736Z,998.25
2016-04-06T04:07:11.755Z,998.25
2016-04-06T04:08:11.773Z,998.27
2016-04-06T04:09:11.792Z,998.3
2016-04-06T04:10:11.826Z,998.29
2016-04-06T04:11:11.844Z,998.31
2016-04-06T04:12:11.863Z,998.35
2016-04-06T04:13:11.880Z,998.36
2016-04-06T04:14:11.914Z,998.32
2016-04-06T04:15:11.933Z,998.34
2016-04-06T04:16:11.967Z,998.38
2016-04-06T04:17:11.969Z,998.36
2016-04-06T04:18:12.004Z,998.4
2016-04-06T04:19:12.022Z,998.36
2016-04-06T04:20:12.040Z,998.39
2016-04-06T04:21:12.058Z,998.44
2016-04-06T04:22:12.093Z,998.48
2016-04-06T04:23:12.110Z,998.43
2016-04-06T04:24:12.129Z,998.46
2016-04-06T04:25:12.163Z,998.44
2016-04-06T04:26:12.181Z,998.41
2016-04-06T04:27:12.199Z,998.45
2016-04-06T04:28:12.218Z,998.48
2016-04-06T04:29:12.236Z,998.45
2016-04-06T04:30:12.271Z,998.48
2016-04-06T04:31:12.289Z,998.51
2016-04-06T04:32:12.307Z,998.5
2016-04-06T04:33:12.325Z,998.51
2016-04-06T04:34:12.343Z,998.5
2016-04-06T04:35:12.377Z,998.51
2016-04-06T04:36:12.395Z,998.51
2016-04-06T04:37:12.430Z,998.51
2016-04-06T04:38:12.447Z,998.45
2016-04-06T04:39:12.466Z,998.45
2016-04-06T04:40:12.500Z,998.45
2016-04-06T04:41:12.503Z,998.42
2016-04-06T04:42:12.536Z,998.43
2016-04-06T04:43:12.555Z,998.42
2016-04-06T04:44:12.574Z,998.44
2016-04-06T04:45:12.591Z,998.49
2016-04-06T04:46:12.625Z,998.47
2016-04-06T04:47:12.644Z,998.52
2016-04-06T04:48:12.662Z,998.5
2016-04-06T04:49:12.681Z,998.55
2016-04-06T04:50:12.699Z,998.52
2016-04-06T04:51:12.732Z,998.57
2016-04-06T04:52:12.751Z,998.53
2016-04-06T04:53:12.769Z,998.55
2016-04-06T04:54:12.787Z,998.55
2016-04-06T04:55:12.822Z,998.57
2016-04-06T04:56:12.840Z,998.59
2016-04-06T04:57:12.859Z,998.57
2016-04-06T04:58:12.877Z,998.59
2016-04-06T04:59:12.910Z,998.56
2016-04-06T05:00:12.929Z,998.6
2016-04-06T05:01:12.948Z,998.56
2016-04-06T05:02:12.965Z,998.61
2016-04-06T05:03:13.000Z,998.58
2016-04-06T05:04:13.017Z,998.63
2016-04-06T05:05:13.036Z,998.67
2016-04-06T05:06:13.053Z,998.65
2016-04-06T05:07:13.073Z,998.62
2016-04-06T05:08:13.154Z,998.62
2016-04-06T05:09:13.125Z,998.64
2016-04-06T05:10:13.144Z,998.64
2016-04-06T05:11:13.178Z,998.62
2016-04-06T05:12:13.195Z,998.68
2016-04-06T05:13:13.214Z,998.67
2016-04-06T05:14:13.248Z,998.67
2016-04-06T05:15:13.250Z,998.67
2016-04-06T05:16:13.269Z,998.7
2016-04-06T05:17:13.318Z,998.65
2016-04-06T05:18:13.321Z,998.67
2016-04-06T05:19:13.339Z,998.72
2016-04-06T05:20:13.358Z,998.7
2016-04-06T05:21:13.391Z,998.71
2016-04-06T05:22:13.410Z,998.7
2016-04-06T05:23:13.429Z,998.67
2016-04-06T05:24:13.446Z,998.67
2016-04-06T05:25:13.465Z,998.65
2016-04-06T05:26:13.499Z,998.71
2016-04-06T05:27:13.517Z,998.68
2016-04-06T05:28:13.530Z,998.69
2016-04-06T05:29:13.580Z,998.7
2016-04-06T05:30:13.582Z,998.73
2016-04-06T05:31:13.601Z,998.72
2016-04-06T05:32:13.620Z,998.68
2016-04-06T05:33:13.654Z,998.71
2016-04-06T05:34:13.671Z,998.71
2016-04-06T05:35:13.690Z,998.75
2016-04-06T05:36:13.709Z,998.73
2016-04-06T05:37:13.743Z,998.75
2016-04-06T05:38:13.761Z,998.77
2016-04-06T05:39:13.778Z,998.81
2016-04-06T05:40:13.798Z,998.83
2016-04-06T05:41:13.831Z,998.81
2016-04-06T05:42:13.850Z,998.84
2016-04-06T05:43:13.868Z,998.9
2016-04-06T05:44:13.886Z,998.88
2016-04-06T05:45:13.905Z,998.89
2016-04-06T05:46:13.923Z,998.85
2016-04-06T05:47:13.956Z,998.89
2016-04-06T05:48:13.975Z,998.88
2016-04-06T05:49:13.993Z,998.85
2016-04-06T05:50:14.011Z,998.88
2016-04-06T05:51:14.030Z,998.91
2016-04-06T05:52:14.063Z,998.89
2016-04-06T05:53:14.082Z,998.94
2016-04-06T05:54:14.100Z,998.93
2016-04-06T05:55:14.119Z,998.95
2016-04-06T05:56:14.152Z,998.93
2016-04-06T05:57:14.171Z,998.97
2016-04-06T05:58:14.189Z,998.94
2016-04-06T05:59:14.208Z,998.94
2016-04-06T06:00:14.227Z,998.93
2016-04-06T06:01:14.259Z,998.93
2016-04-06T06:02:14.279Z,998.95
2016-04-06T06:03:14.296Z,998.9
2016-04-06T06:04:14.326Z,998.94
2016-04-06T06:05:14.390Z,998.92
2016-04-06T06:06:14.469Z,998.92
2016-04-06T06:07:14.532Z,998.95
2016-04-06T06:08:14.597Z,998.92
2016-04-06T06:09:14.653Z,998.95
2016-04-06T06:10:14.703Z,998.93
2016-04-06T06:11:14.738Z,998.93
2016-04-06T06:12:14.771Z,998.94
2016-04-06T06:13:14.807Z,998.95
2016-04-06T06:14:14.838Z,998.99
2016-04-06T06:15:14.862Z,998.94
2016-04-06T06:16:14.902Z,998.96
2016-04-06T06:17:14.926Z,998.94
2016-04-06T06:18:14.950Z,998.95
2016-04-06T06:19:14.973Z,998.94
2016-04-06T06:20:15.008Z,998.93
2016-04-06T06:21:15.029Z,998.93
2016-04-06T06:22:15.050Z,998.93
2016-04-06T06:23:15.070Z,998.91
2016-04-06T06:24:15.091Z,998.9
2016-04-06T06:25:15.126Z,998.89
2016-04-06T06:26:15.146Z,998.93
2016-04-06T06:27:15.164Z,998.92
2016-04-06T06:28:15.183Z,998.97
2016-04-06T06:29:15.218Z,998.95
2016-04-06T06:30:15.237Z,998.94
2016-04-06T06:31:15.256Z,998.95
2016-04-06T06:32:15.274Z,998.94
2016-04-06T06:33:15.308Z,998.89
2016-04-06T06:34:15.327Z,998.96
2016-04-06T06:35:15.345Z,998.95
2016-04-06T06:36:15.363Z,999
2016-04-06T06:37:15.382Z,998.97
2016-04-06T06:38:15.401Z,998.97
2016-04-06T06:39:15.434Z,998.91
2016-04-06T06:40:15.452Z,998.97
2016-04-06T06:41:15.471Z,998.93
2016-04-06T06:42:15.490Z,998.89
2016-04-06T06:43:15.523Z,998.97
2016-04-06T06:44:15.542Z,998.9
2016-04-06T06:45:15.560Z,998.98
2016-04-06T06:46:15.579Z,998.94
2016-04-06T06:47:15.612Z,998.95
2016-04-06T06:48:15.630Z,998.95
2016-04-06T06:49:15.648Z,998.94
2016-04-06T06:50:15.667Z,998.98
2016-04-06T06:51:15.686Z,998.98
2016-04-06T06:52:15.703Z,998.97
2016-04-06T06:53:15.737Z,998.98
2016-04-06T06:54:15.756Z,999
2016-04-06T06:55:15.774Z,999.01
2016-04-06T06:56:15.792Z,999.03
2016-04-06T06:57:15.827Z,999
2016-04-06T06:58:15.845Z,999.03
2016-04-06T06:59:15.863Z,999.01
2016-04-06T07:00:15.880Z,999.07
2016-04-06T07:01:15.899Z,999.07
2016-04-06T07:02:15.934Z,999.1
2016-04-06T07:03:15.952Z,999.11
2016-04-06T07:04:15.986Z,999.1
2016-04-06T07:05:16.019Z,999.11
2016-04-06T07:06:16.022Z,999.13
2016-04-06T07:07:16.041Z,999.15
2016-04-06T07:08:16.074Z,999.13
2016-04-06T07:09:16.093Z,999.18
2016-04-06T07:10:16.112Z,999.2
2016-04-06T07:11:16.130Z,999.22
2016-04-06T07:12:16.163Z,999.23
2016-04-06T07:13:16.182Z,999.17
2016-04-06T07:14:16.200Z,999.22
2016-04-06T07:15:16.218Z,999.16
2016-04-06T07:16:16.236Z,999.2
2016-04-06T07:17:16.270Z,999.19
2016-04-06T07:18:16.304Z,999.18
2016-04-06T07:19:16.307Z,999.18
2016-04-06T07:20:16.403Z,999.23
2016-04-06T07:21:16.438Z,999.14
2016-04-06T07:22:16.440Z,999.24
2016-04-06T07:23:16.381Z,999.25
2016-04-06T07:24:16.415Z,999.21
2016-04-06T07:25:16.434Z,999.18
2016-04-06T07:26:16.451Z,999.19
2016-04-06T07:27:16.469Z,999.24
2016-04-06T07:28:16.503Z,999.2
2016-04-06T07:29:16.522Z,999.19
2016-04-06T07:30:16.540Z,999.21
2016-04-06T07:31:16.558Z,999.14
2016-04-06T07:32:16.592Z,999.21
2016-04-06T07:33:16.610Z,999.23
2016-04-06T07:34:16.630Z,999.26
2016-04-06T07:35:16.741Z,999.26
2016-04-06T07:36:16.682Z,999.27
2016-04-06T07:37:16.699Z,999.26
2016-04-06T07:38:16.718Z,999.27
2016-04-06T07:39:16.752Z,999.28
2016-04-06T07:40:16.771Z,999.31
2016-04-06T07:41:16.788Z,999.3
2016-04-06T07:42:16.807Z,999.27
2016-04-06T07:43:16.826Z,999.29
2016-04-06T07:44:16.843Z,999.27
2016-04-06T07:45:16.877Z,999.22
2016-04-06T07:46:16.896Z,999.27
2016-04-06T07:47:16.930Z,999.22
2016-04-06T07:48:16.932Z,999.24
2016-04-06T07:49:16.967Z,999.23
2016-04-06T07:50:17.016Z,999.29
2016-04-06T07:51:17.003Z,999.28
2016-04-06T07:52:17.021Z,999.32
2016-04-06T07:53:17.055Z,999.34
2016-04-06T07:54:17.073Z,999.39
2016-04-06T07:55:17.092Z,999.33
2016-04-06T07:56:17.125Z,999.35
2016-04-06T07:57:17.144Z,999.41
2016-04-06T07:58:17.178Z,999.36
2016-04-06T07:59:17.181Z,999.39
2016-04-06T08:00:17.214Z,999.35
2016-04-06T08:01:17.233Z,999.35
2016-04-06T08:02:17.313Z,999.36
2016-04-06T08:03:17.270Z,999.41
2016-04-06T08:04:17.303Z,999.39
2016-04-06T08:05:17.321Z,999.41
2016-04-06T08:06:17.340Z,999.42
2016-04-06T08:07:17.358Z,999.46
2016-04-06T08:08:17.393Z,999.48
2016-04-06T08:09:17.411Z,999.47
2016-04-06T08:10:17.429Z,999.43
2016-04-06T08:11:17.463Z,999.46
2016-04-06T08:12:17.482Z,999.46
2016-04-06T08:13:17.499Z,999.47
2016-04-06T08:14:17.518Z,999.43
2016-04-06T08:15:17.552Z,999.49
2016-04-06T08:16:17.585Z,999.41
2016-04-06T08:17:17.588Z,999.45
2016-04-06T08:18:17.622Z,999.42
2016-04-06T08:19:17.640Z,999.46
2016-04-06T08:20:17.675Z,999.47
2016-04-06T08:21:17.692Z,999.43
2016-04-06T08:22:17.711Z,999.4
2016-04-06T08:23:17.729Z,999.33
2016-04-06T08:24:17.748Z,999.32
2016-04-06T08:25:17.767Z,999.38
2016-04-06T08:26:17.800Z,999.33
2016-04-06T08:27:17.834Z,999.35
2016-04-06T08:28:17.836Z,999.39
2016-04-06T08:29:17.871Z,999.38
2016-04-06T08:30:17.889Z,999.4
2016-04-06T08:31:17.908Z,999.38
2016-04-06T08:32:17.925Z,999.42
2016-04-06T08:33:17.960Z,999.4
2016-04-06T08:34:17.978Z,999.35
2016-04-06T08:35:17.997Z,999.36
2016-04-06T08:36:18.031Z,999.33
2016-04-06T08:37:18.049Z,999.39
2016-04-06T08:38:18.066Z,999.39
2016-04-06T08:39:18.085Z,999.41
2016-04-06T08:40:18.119Z,999.43
2016-04-06T08:41:18.138Z,999.4
2016-04-06T08:42:18.155Z,999.45
2016-04-06T08:43:18.205Z,999.43
2016-04-06T08:44:18.208Z,999.44
2016-04-06T08:45:18.227Z,999.42
2016-04-06T08:46:18.260Z,999.42
2016-04-06T08:47:18.279Z,999.35
2016-04-06T08:48:18.297Z,999.35
2016-04-06T08:49:18.315Z,999.37
2016-04-06T08:50:18.348Z,999.36
2016-04-06T08:51:18.368Z,999.35
2016-04-06T08:52:18.386Z,999.39
2016-04-06T08:53:18.420Z,999.39
2016-04-06T08:54:18.438Z,999.38
2016-04-06T08:55:18.472Z,999.4
2016-04-06T08:56:18.490Z,999.36
2016-04-06T08:57:18.509Z,999.34
2016-04-06T08:58:18.542Z,999.35
2016-04-06T08:59:18.561Z,999.28
2016-04-06T09:00:18.578Z,999.31
2016-04-06T09:01:18.598Z,999.34
2016-04-06T09:02:18.631Z,999.33
2016-04-06T09:03:18.650Z,999.33
2016-04-06T09:04:18.683Z,999.33
2016-04-06T09:05:18.702Z,999.31
2016-04-06T09:06:18.720Z,999.32
2016-04-06T09:07:18.755Z,999.34
2016-04-06T09:08:18.772Z,999.41
2016-04-06T09:09:18.791Z,999.43
2016-04-06T09:10:18.824Z,999.39
2016-04-06T09:11:18.843Z,999.34
2016-04-06T09:12:18.861Z,999.36
2016-04-06T09:13:18.879Z,999.36
2016-04-06T09:14:18.914Z,999.31
2016-04-06T09:15:18.932Z,999.29
2016-04-06T09:16:18.950Z,999.33
2016-04-06T09:17:18.984Z,999.32
2016-04-06T09:18:19.002Z,999.31
2016-04-06T09:19:19.037Z,999.25
2016-04-06T09:20:19.054Z,999.28
2016-04-06T09:21:19.074Z,999.25
2016-04-06T09:22:19.107Z,999.33
2016-04-06T09:23:19.125Z,999.28
2016-04-06T09:24:19.144Z,999.31
2016-04-06T09:25:19.178Z,999.3
2016-04-06T09:26:19.196Z,999.31
2016-04-06T09:27:19.214Z,999.29
2016-04-06T09:28:19.248Z,999.3
2016-04-06T09:29:19.267Z,999.25
2016-04-06T09:30:19.284Z,999.27
2016-04-06T09:31:19.303Z,999.26
2016-04-06T09:32:19.337Z,999.31
2016-04-06T09:33:19.372Z,999.31
2016-04-06T09:34:19.389Z,999.3
2016-04-06T09:35:19.408Z,999.32
2016-04-06T09:36:19.426Z,999.27
2016-04-06T09:37:19.460Z,999.29
2016-04-06T09:38:19.478Z,999.31
2016-04-06T09:39:19.513Z,999.25
2016-04-06T09:40:19.530Z,999.23
2016-04-06T09:41:19.549Z,999.28
2016-04-06T09:42:19.572Z,999.35
2016-04-06T09:43:19.606Z,999.29
2016-04-06T09:44:19.624Z,999.34
2016-04-06T09:45:19.652Z,999.24
2016-04-06T09:46:19.669Z,999.28
2016-04-06T09:47:19.703Z,999.24
2016-04-06T09:48:19.722Z,999.22
2016-04-06T09:49:19.740Z,999.27
2016-04-06T09:50:19.775Z,999.2
2016-04-06T09:51:19.793Z,999.2
2016-04-06T09:52:19.827Z,999.22
2016-04-06T09:53:19.844Z,999.15
2016-04-06T09:54:19.863Z,999.16
2016-04-06T09:55:19.897Z,999.16
2016-04-06T09:56:19.915Z,999.13
2016-04-06T09:57:19.934Z,999.16
2016-04-06T09:58:19.968Z,999.17
2016-04-06T09:59:19.985Z,999.12
2016-04-06T10:00:20.020Z,999.14
2016-04-06T10:01:20.037Z,999.06
2016-04-06T10:02:20.057Z,999.05
2016-04-06T10:03:20.121Z,999.02
2016-04-06T10:04:20.109Z,998.9
2016-04-06T10:05:20.143Z,999.04
2016-04-06T10:06:20.161Z,999.18
2016-04-06T10:07:20.179Z,999.03
2016-04-06T10:08:20.214Z,999.01
2016-04-06T10:09:20.231Z,998.99
2016-04-06T10:10:20.265Z,998.96
2016-04-06T10:11:20.284Z,998.99
2016-04-06T10:12:20.302Z,998.96
2016-04-06T10:13:20.336Z,998.93
2016-04-06T10:14:20.355Z,998.96
2016-04-06T10:15:20.388Z,998.89
2016-04-06T10:16:20.406Z,998.91
2016-04-06T10:17:20.425Z,998.96
2016-04-06T10:18:20.459Z,998.97
2016-04-06T10:19:20.477Z,998.98
2016-04-06T10:20:20.511Z,998.99
2016-04-06T10:21:20.530Z,998.89
2016-04-06T10:22:20.547Z,998.93
2016-04-06T10:23:20.582Z,998.95
2016-04-06T10:24:20.600Z,998.96
2016-04-06T10:25:20.618Z,998.95
2016-04-06T10:26:20.652Z,999.01
2016-04-06T10:27:20.671Z,998.98
2016-04-06T10:28:20.705Z,999.06
2016-04-06T10:29:20.723Z,999.03
2016-04-06T10:30:20.756Z,999.06
2016-04-06T10:31:20.776Z,998.96
2016-04-06T10:32:20.793Z,999.02
2016-04-06T10:33:20.827Z,999.04
2016-04-06T10:34:20.845Z,999.02
2016-04-06T10:35:20.880Z,999.08
2016-04-06T10:36:20.898Z,999.1
2016-04-06T10:37:20.931Z,999.01
2016-04-06T10:38:20.950Z,998.93
2016-04-06T10:39:20.968Z,998.97
2016-04-06T10:40:21.003Z,999.01
2016-04-06T10:41:21.052Z,998.94
2016-04-06T10:42:21.055Z,998.92
2016-04-06T10:43:21.089Z,998.94
2016-04-06T10:44:21.106Z,998.95
2016-04-06T10:45:21.125Z,998.98
2016-04-06T10:46:21.144Z,998.9
2016-04-06T10:47:21.178Z,998.89
2016-04-06T10:48:21.197Z,998.96
2016-04-06T10:49:21.230Z,998.95
2016-04-06T10:50:21.247Z,998.95
2016-04-06T10:51:21.282Z,998.96
2016-04-06T10:52:21.300Z,998.94
2016-04-06T10:53:21.335Z,998.96
2016-04-06T10:54:21.352Z,998.89
2016-04-06T10:55:21.386Z,998.87
2016-04-06T10:56:21.405Z,998.88
2016-04-06T10:57:21.423Z,998.84
2016-04-06T10:58:21.457Z,998.84
2016-04-06T10:59:21.476Z,998.85
2016-04-06T11:00:21.509Z,998.89
2016-04-06T11:01:21.527Z,998.88
2016-04-06T11:02:21.561Z,998.87
2016-04-06T11:03:21.580Z,998.87
2016-04-06T11:04:21.598Z,998.89
2016-04-06T11:05:21.631Z,998.87
2016-04-06T11:06:21.665Z,998.82
2016-04-06T11:07:21.685Z,998.84
2016-04-06T11:08:21.718Z,998.87
2016-04-06T11:09:21.736Z,998.88
2016-04-06T11:10:21.756Z,998.87
2016-04-06T11:11:21.789Z,999.05
2016-04-06T11:12:21.806Z,998.87
2016-04-06T11:13:21.842Z,998.91
2016-04-06T11:14:21.860Z,998.91
2016-04-06T11:15:21.894Z,999.05
2016-04-06T11:16:21.911Z,998.99
2016-04-06T11:17:21.945Z,998.94
2016-04-06T11:18:21.964Z,998.94
2016-04-06T11:19:21.997Z,998.92
2016-04-06T11:20:22.016Z,998.92
2016-04-06T11:21:22.050Z,998.91
2016-04-06T11:22:22.069Z,998.95
2016-04-06T11:23:22.102Z,998.92
2016-04-06T11:24:22.136Z,999
2016-04-06T11:25:22.139Z,998.96
2016-04-06T11:26:22.173Z,998.91
2016-04-06T11:27:22.207Z,998.89
2016-04-06T11:28:22.225Z,998.94
2016-04-06T11:29:22.243Z,998.88
2016-04-06T11:30:22.277Z,998.91
2016-04-06T11:31:22.295Z,998.9
2016-04-06T11:32:22.329Z,998.86
2016-04-06T11:33:22.348Z,998.87
2016-04-06T11:34:22.382Z,998.86
2016-04-06T11:35:22.401Z,998.85
2016-04-06T11:36:22.434Z,998.91
2016-04-06T11:37:22.453Z,998.93
2016-04-06T11:38:22.487Z,998.83
2016-04-06T11:39:22.504Z,998.79
2016-04-06T11:40:22.539Z,998.77
2016-04-06T11:41:22.556Z,998.78
2016-04-06T11:42:22.592Z,998.69
2016-04-06T11:43:22.609Z,998.78
2016-04-06T11:44:22.628Z,998.74
2016-04-06T11:45:22.661Z,998.85
2016-04-06T11:46:22.742Z,998.83
2016-04-06T11:47:22.714Z,998.75
2016-04-06T11:48:22.733Z,998.76
2016-04-06T11:49:22.766Z,998.73
2016-04-06T11:50:22.784Z,998.74
2016-04-06T11:51:22.819Z,998.77
2016-04-06T11:52:22.836Z,998.72
2016-04-06T11:53:22.871Z,998.73
2016-04-06T11:54:23.091Z,998.74
2016-04-06T11:55:22.922Z,998.65
2016-04-06T11:56:22.941Z,998.63
2016-04-06T11:57:22.975Z,998.65
2016-04-06T11:58:23.010Z,998.61
2016-04-06T11:59:23.027Z,998.68
2016-04-06T12:00:24.452Z,998.6
2016-04-06T12:01:23.188Z,998.45
2016-04-06T12:02:23.363Z,998.54
2016-04-06T12:03:23.132Z,998.48
2016-04-06T12:04:23.151Z,998.52
2016-04-06T12:05:23.184Z,998.59
2016-04-06T12:06:23.202Z,998.51
2016-04-06T12:07:23.236Z,998.45
2016-04-06T12:08:23.293Z,998.49
2016-04-06T12:09:23.280Z,998.56
2016-04-06T12:10:23.313Z,998.58
2016-04-06T12:11:23.332Z,998.51
2016-04-06T12:12:23.366Z,998.53
2016-04-06T12:13:23.385Z,998.46
2016-04-06T12:14:23.418Z,998.45
2016-04-06T12:15:23.436Z,998.45
2016-04-06T12:16:23.471Z,998.48
2016-04-06T12:17:23.506Z,998.5
2016-04-06T12:18:23.525Z,998.42
2016-04-06T12:19:23.543Z,998.39
2016-04-06T12:20:23.577Z,998.44
2016-04-06T12:21:23.595Z,998.4
2016-04-06T12:22:23.629Z,998.36
2016-04-06T12:23:23.647Z,998.42
2016-04-06T12:24:23.681Z,998.44
2016-04-06T12:25:23.700Z,998.42
2016-04-06T12:26:23.734Z,998.39
2016-04-06T12:27:23.767Z,998.43
2016-04-06T12:28:23.786Z,998.39
2016-04-06T12:29:23.804Z,998.35
2016-04-06T12:30:23.838Z,998.32